createdAt,value
2023-05-11T00:00:20.464Z,12.80
2023-05-11T00:01:20.338Z,11.90
2023-05-11T00:02:20.373Z,10.90
2023-05-11T00:03:20.500Z,11.20
2023-05-11T00:04:20.480Z,10.70
2023-05-11T00:05:20.314Z,11.50
2023-05-11T00:06:20.309Z,14.90
2023-05-11T00:07:20.304Z,12.40
2023-05-11T00:08:20.301Z,11.90
2023-05-11T00:09:20.297Z,13.40
2023-05-11T00:10:20.431Z,12.30
2023-05-11T00:11:20.279Z,14.60
2023-05-11T00:12:20.276Z,13.80
2023-05-11T00:13:20.268Z,13.00
2023-05-11T00:14:20.262Z,13.30
2023-05-11T00:15:20.256Z,15.00
2023-05-11T00:16:20.307Z,13.00
2023-05-11T00:17:20.248Z,14.60
2023-05-11T00:18:20.267Z,15.70
2023-05-11T00:19:20.241Z,14.40
2023-05-11T00:20:20.330Z,12.80
2023-05-11T00:21:20.236Z,14.70
2023-05-11T00:22:20.219Z,12.30
2023-05-11T00:23:20.221Z,14.00
2023-05-11T00:24:20.201Z,12.10
2023-05-11T00:25:20.194Z,15.80
2023-05-11T00:26:20.189Z,17.00
2023-05-11T00:27:20.180Z,15.20
2023-05-11T00:28:20.178Z,16.90
2023-05-11T00:29:20.168Z,13.90
2023-05-11T00:30:20.493Z,13.80
2023-05-11T00:31:20.186Z,13.00
2023-05-11T00:32:20.180Z,13.30
2023-05-11T00:33:20.145Z,15.80
2023-05-11T00:34:20.138Z,17.80
2023-05-11T00:35:20.130Z,14.30
2023-05-11T00:36:20.127Z,16.60
2023-05-11T00:37:20.118Z,15.50
2023-05-11T00:38:20.140Z,16.70
2023-05-11T00:39:20.107Z,14.80
2023-05-11T00:40:20.294Z,17.30
2023-05-11T00:41:20.103Z,15.50
2023-05-11T00:42:20.084Z,14.20
2023-05-11T00:43:20.080Z,13.30
2023-05-11T00:44:20.073Z,14.90
2023-05-11T00:45:20.112Z,16.80
2023-05-11T00:46:20.102Z,16.10
2023-05-11T00:47:20.061Z,13.30
2023-05-11T00:48:20.049Z,15.30
2023-05-11T00:49:20.040Z,14.40
2023-05-11T00:50:20.146Z,17.10
2023-05-11T00:51:20.027Z,13.50
2023-05-11T00:52:20.021Z,16.30
2023-05-11T00:53:20.022Z,16.40
2023-05-11T00:54:20.013Z,18.60
2023-05-11T00:55:19.999Z,23.80
2023-05-11T00:56:20.002Z,20.10
2023-05-11T00:57:19.986Z,19.30
2023-05-11T00:58:19.980Z,18.20
2023-05-11T00:59:19.977Z,18.90
2023-05-11T01:00:20.239Z,17.20
2023-05-11T01:01:19.994Z,16.50
2023-05-11T01:02:20.020Z,16.50
2023-05-11T01:03:19.976Z,14.90
2023-05-11T01:04:19.947Z,16.30
2023-05-11T01:05:19.940Z,14.10
2023-05-11T01:06:19.926Z,14.20
2023-05-11T01:07:19.928Z,13.90
2023-05-11T01:08:19.918Z,12.50
2023-05-11T01:09:19.914Z,11.90
2023-05-11T01:10:20.054Z,12.40
2023-05-11T01:11:19.946Z,12.80
2023-05-11T01:12:19.900Z,11.70
2023-05-11T01:13:19.888Z,11.80
2023-05-11T01:14:19.881Z,14.20
2023-05-11T01:15:19.882Z,11.70
2023-05-11T01:16:19.937Z,14.50
2023-05-11T01:17:19.913Z,13.40
2023-05-11T01:18:19.870Z,12.00
2023-05-11T01:19:19.849Z,13.30
2023-05-11T01:20:20.076Z,11.80
2023-05-11T01:21:19.851Z,13.30
2023-05-11T01:22:19.834Z,13.20
2023-05-11T01:23:19.824Z,12.00
2023-05-11T01:24:19.814Z,12.20
2023-05-11T01:25:19.810Z,12.40
2023-05-11T01:26:19.805Z,14.20
2023-05-11T01:27:19.793Z,13.10
2023-05-11T01:28:19.786Z,13.00
2023-05-11T01:29:19.777Z,13.80
2023-05-11T01:30:19.924Z,14.70
2023-05-11T01:31:19.790Z,16.10
2023-05-11T01:32:19.760Z,16.50
2023-05-11T01:33:19.807Z,19.10
2023-05-11T01:34:19.744Z,22.20
2023-05-11T01:35:19.742Z,15.50
2023-05-11T01:36:19.760Z,15.50
2023-05-11T01:37:19.728Z,16.30
2023-05-11T01:38:19.715Z,14.40
2023-05-11T01:39:19.710Z,14.00
2023-05-11T01:40:19.926Z,17.40
2023-05-11T01:41:19.696Z,14.80
2023-05-11T01:42:19.681Z,14.60
2023-05-11T01:43:19.676Z,14.70
2023-05-11T01:44:19.677Z,19.00
2023-05-11T01:45:19.672Z,21.30
2023-05-11T01:46:19.712Z,20.70
2023-05-11T01:47:19.652Z,19.70
2023-05-11T01:48:19.646Z,21.50
2023-05-11T01:49:19.653Z,23.80
2023-05-11T01:50:19.857Z,25.10
2023-05-11T01:51:19.625Z,20.00
2023-05-11T01:52:19.621Z,16.90
2023-05-11T01:53:19.619Z,14.60
2023-05-11T01:54:19.612Z,14.80
2023-05-11T01:55:19.607Z,14.90
2023-05-11T01:56:19.585Z,15.80
2023-05-11T01:57:19.594Z,17.70
2023-05-11T01:58:19.571Z,20.20
2023-05-11T01:59:19.565Z,16.70
2023-05-11T02:00:19.729Z,17.80
2023-05-11T02:01:19.613Z,16.40
2023-05-11T02:02:19.579Z,15.90
2023-05-11T02:03:19.687Z,16.80
2023-05-11T02:04:19.536Z,17.00
2023-05-11T02:05:19.536Z,20.80
2023-05-11T02:06:19.521Z,21.80
2023-05-11T02:07:19.510Z,21.70
2023-05-11T02:08:19.530Z,21.70
2023-05-11T02:09:19.495Z,26.20
2023-05-11T02:10:19.653Z,24.90
2023-05-11T02:11:19.482Z,27.90
2023-05-11T02:12:19.478Z,18.30
2023-05-11T02:13:19.482Z,17.90
2023-05-11T02:14:19.462Z,17.90
2023-05-11T02:15:19.468Z,18.20
2023-05-11T02:16:19.481Z,16.30
2023-05-11T02:17:19.441Z,18.00
2023-05-11T02:18:19.466Z,19.40
2023-05-11T02:19:19.426Z,17.90
2023-05-11T02:20:19.624Z,17.20
2023-05-11T02:21:19.415Z,17.20
2023-05-11T02:22:19.403Z,17.90
2023-05-11T02:23:19.400Z,19.60
2023-05-11T02:24:19.401Z,19.20
2023-05-11T02:25:19.389Z,19.00
2023-05-11T02:26:19.378Z,16.70
2023-05-11T02:27:19.373Z,18.20
2023-05-11T02:28:19.370Z,18.10
2023-05-11T02:29:19.367Z,17.10
2023-05-11T02:30:19.538Z,20.00
2023-05-11T02:31:19.397Z,22.10
2023-05-11T02:32:19.335Z,20.90
2023-05-11T02:33:19.326Z,21.50
2023-05-11T02:34:19.328Z,24.00
2023-05-11T02:35:19.314Z,22.20
2023-05-11T02:36:19.306Z,22.30
2023-05-11T02:37:19.299Z,21.30
2023-05-11T02:38:19.291Z,23.60
2023-05-11T02:39:19.281Z,21.70
2023-05-11T02:40:19.510Z,21.00
2023-05-11T02:41:19.278Z,20.90
2023-05-11T02:42:19.272Z,23.40
2023-05-11T02:43:19.254Z,24.10
2023-05-11T02:44:19.248Z,26.30
2023-05-11T02:45:19.240Z,24.70
2023-05-11T02:46:19.281Z,21.30
2023-05-11T02:47:19.229Z,20.40
2023-05-11T02:48:19.223Z,19.80
2023-05-11T02:49:19.211Z,18.50
2023-05-11T02:50:19.356Z,16.10
2023-05-11T02:51:19.216Z,18.30
2023-05-11T02:52:19.190Z,22.80
2023-05-11T02:53:19.187Z,22.60
2023-05-11T02:54:19.177Z,24.50
2023-05-11T02:55:19.165Z,25.80
2023-05-11T02:56:19.154Z,32.00
2023-05-11T02:57:19.153Z,27.90
2023-05-11T02:58:19.238Z,23.20
2023-05-11T02:59:19.131Z,20.20
2023-05-11T03:00:19.320Z,22.10
2023-05-11T03:01:19.190Z,21.90
2023-05-11T03:02:19.224Z,21.00
2023-05-11T03:03:19.197Z,22.30
2023-05-11T03:04:19.098Z,17.90
2023-05-11T03:05:19.094Z,23.30
2023-05-11T03:06:19.086Z,22.60
2023-05-11T03:07:19.076Z,21.70
2023-05-11T03:08:19.066Z,26.60
2023-05-11T03:09:19.059Z,20.50
2023-05-11T03:10:19.250Z,23.60
2023-05-11T03:11:19.049Z,20.70
2023-05-11T03:12:19.039Z,20.30
2023-05-11T03:13:19.033Z,19.90
2023-05-11T03:14:19.020Z,20.30
2023-05-11T03:15:19.014Z,21.30
2023-05-11T03:16:21.026Z,21.30
2023-05-11T03:17:19.005Z,19.70
2023-05-11T03:18:19.021Z,20.10
2023-05-11T03:19:18.987Z,22.10
2023-05-11T03:20:19.161Z,19.40
2023-05-11T03:21:18.970Z,23.20
2023-05-11T03:22:18.968Z,22.80
2023-05-11T03:23:18.959Z,22.60
2023-05-11T03:24:18.958Z,20.90
2023-05-11T03:25:18.944Z,22.20
2023-05-11T03:26:18.947Z,21.20
2023-05-11T03:27:18.930Z,22.80
2023-05-11T03:28:18.923Z,24.40
2023-05-11T03:29:18.917Z,23.30
2023-05-11T03:30:19.240Z,28.60
2023-05-11T03:31:18.904Z,25.90
2023-05-11T03:32:18.922Z,26.90
2023-05-11T03:33:18.888Z,25.60
2023-05-11T03:34:18.877Z,26.40
2023-05-11T03:35:18.875Z,24.50
2023-05-11T03:36:18.868Z,24.10
2023-05-11T03:37:18.856Z,23.00
2023-05-11T03:38:18.851Z,26.80
2023-05-11T03:39:18.839Z,22.40
2023-05-11T03:40:18.965Z,22.30
2023-05-11T03:41:18.825Z,20.70
2023-05-11T03:42:18.816Z,21.70
2023-05-11T03:43:18.812Z,21.00
2023-05-11T03:44:18.815Z,25.10
2023-05-11T03:45:18.798Z,21.70
2023-05-11T03:46:18.866Z,20.80
2023-05-11T03:47:18.801Z,24.70
2023-05-11T03:48:18.791Z,27.70
2023-05-11T03:49:18.773Z,23.50
2023-05-11T03:50:18.913Z,21.80
2023-05-11T03:51:18.750Z,22.40
2023-05-11T03:52:18.747Z,20.70
2023-05-11T03:53:18.737Z,22.80
2023-05-11T03:54:18.726Z,20.90
2023-05-11T03:55:18.723Z,19.70
2023-05-11T03:56:18.709Z,18.80
2023-05-11T03:57:18.727Z,16.60
2023-05-11T03:58:18.696Z,19.80
2023-05-11T03:59:18.692Z,19.00
2023-05-11T04:00:18.887Z,16.30
2023-05-11T04:01:18.708Z,16.20
2023-05-11T04:02:18.679Z,15.00
2023-05-11T04:03:18.772Z,15.60
2023-05-11T04:04:18.704Z,18.10
2023-05-11T04:05:18.649Z,16.50
2023-05-11T04:06:18.640Z,12.50
2023-05-11T04:07:18.640Z,13.50
2023-05-11T04:08:18.618Z,13.60
2023-05-11T04:09:18.614Z,15.00
2023-05-11T04:10:18.858Z,12.70
2023-05-11T04:11:18.599Z,15.30
2023-05-11T04:12:18.590Z,15.00
2023-05-11T04:13:18.578Z,15.20
2023-05-11T04:14:18.592Z,12.20
2023-05-11T04:15:18.568Z,13.30
2023-05-11T04:16:18.668Z,12.60
2023-05-11T04:17:18.552Z,11.60
2023-05-11T04:18:18.570Z,11.30
2023-05-11T04:19:18.923Z,14.00
2023-05-11T04:20:18.815Z,10.90
2023-05-11T04:21:18.522Z,11.00
2023-05-11T04:22:18.514Z,12.30
2023-05-11T04:23:18.507Z,11.30
2023-05-11T04:24:18.502Z,14.00
2023-05-11T04:25:18.507Z,10.20
2023-05-11T04:26:18.485Z,13.00
2023-05-11T04:27:18.484Z,10.10
2023-05-11T04:28:18.476Z,10.00
2023-05-11T04:29:18.470Z,10.80
2023-05-11T04:30:18.670Z,9.50
2023-05-11T04:31:18.469Z,10.00
2023-05-11T04:32:18.450Z,11.70
2023-05-11T04:33:18.443Z,11.50
2023-05-11T04:34:18.432Z,11.80
2023-05-11T04:35:18.441Z,11.80
2023-05-11T04:36:18.413Z,11.40
2023-05-11T04:37:18.407Z,12.20
2023-05-11T04:38:18.405Z,11.50
2023-05-11T04:39:18.392Z,11.70
2023-05-11T04:40:18.588Z,12.20
2023-05-11T04:41:18.379Z,12.60
2023-05-11T04:42:18.381Z,12.70
2023-05-11T04:43:18.369Z,12.60
2023-05-11T04:44:18.365Z,12.90
2023-05-11T04:45:18.358Z,13.40
2023-05-11T04:46:18.770Z,12.90
2023-05-11T04:47:18.341Z,13.60
2023-05-11T04:48:20.550Z,13.30
2023-05-11T04:49:18.328Z,13.70
2023-05-11T04:50:18.554Z,13.10
2023-05-11T04:51:18.316Z,13.80
2023-05-11T04:52:18.309Z,14.50
2023-05-11T04:53:18.321Z,13.70
2023-05-11T04:54:18.312Z,13.60
2023-05-11T04:55:18.292Z,13.80
2023-05-11T04:56:18.289Z,14.40
2023-05-11T04:57:18.329Z,13.90
2023-05-11T04:58:18.278Z,13.70
2023-05-11T04:59:18.266Z,14.40
2023-05-11T05:00:18.470Z,13.80
2023-05-11T05:01:18.274Z,12.70
2023-05-11T05:02:18.249Z,13.30
2023-05-11T05:03:18.308Z,13.90
2023-05-11T05:04:18.284Z,14.60
2023-05-11T05:05:18.248Z,14.40
2023-05-11T05:06:18.230Z,14.70
2023-05-11T05:07:18.224Z,16.20
2023-05-11T05:08:18.223Z,16.30
2023-05-11T05:09:18.224Z,16.00
2023-05-11T05:10:18.415Z,15.50
2023-05-11T05:11:18.204Z,15.50
2023-05-11T05:12:18.198Z,15.90
2023-05-11T05:13:18.196Z,16.80
2023-05-11T05:14:18.182Z,16.70
2023-05-11T05:15:18.205Z,16.70
2023-05-11T05:16:18.250Z,16.90
2023-05-11T05:17:18.177Z,16.90
2023-05-11T05:18:18.206Z,18.00
2023-05-11T05:19:18.164Z,17.20
2023-05-11T05:20:18.388Z,17.70
2023-05-11T05:21:18.164Z,16.90
2023-05-11T05:22:18.157Z,16.00
2023-05-11T05:23:18.157Z,16.30
2023-05-11T05:24:18.150Z,16.40
2023-05-11T05:25:18.145Z,15.60
2023-05-11T05:26:18.135Z,15.90
2023-05-11T05:27:18.137Z,18.10
2023-05-11T05:28:18.133Z,15.30
2023-05-11T05:29:18.126Z,15.80
2023-05-11T05:30:18.343Z,15.10
2023-05-11T05:31:18.180Z,15.40
2023-05-11T05:32:18.113Z,16.10
2023-05-11T05:33:18.120Z,16.20
2023-05-11T05:34:18.104Z,16.40
2023-05-11T05:35:18.100Z,23.90
2023-05-11T05:36:18.116Z,17.40
2023-05-11T05:37:18.100Z,16.80
2023-05-11T05:38:18.098Z,17.10
2023-05-11T05:39:18.088Z,16.80
2023-05-11T05:40:18.367Z,16.40
2023-05-11T05:41:18.090Z,16.80
2023-05-11T05:42:18.087Z,16.40
2023-05-11T05:43:18.078Z,17.20
2023-05-11T05:44:18.095Z,17.00
2023-05-11T05:45:18.099Z,16.80
2023-05-11T05:46:18.111Z,17.20
2023-05-11T05:47:18.095Z,17.30
2023-05-11T05:48:18.096Z,17.70
2023-05-11T05:49:18.058Z,17.10
2023-05-11T05:50:18.191Z,18.20
2023-05-11T05:51:18.060Z,17.90
2023-05-11T05:52:18.050Z,19.10
2023-05-11T05:53:18.052Z,18.00
2023-05-11T05:54:18.049Z,17.60
2023-05-11T05:55:18.043Z,17.40
2023-05-11T05:56:18.045Z,16.80
2023-05-11T05:57:18.038Z,17.70
2023-05-11T05:58:18.041Z,16.60
2023-05-11T05:59:18.034Z,16.80
2023-05-11T06:00:18.209Z,16.80
2023-05-11T06:01:18.078Z,16.40
2023-05-11T06:02:18.055Z,16.80
2023-05-11T06:03:18.186Z,17.10
2023-05-11T06:04:18.128Z,16.60
2023-05-11T06:05:18.024Z,15.20
2023-05-11T06:06:18.023Z,15.90
2023-05-11T06:07:18.022Z,16.00
2023-05-11T06:08:18.025Z,15.00
2023-05-11T06:09:18.068Z,17.50
2023-05-11T06:10:18.186Z,15.10
2023-05-11T06:11:18.019Z,15.60
2023-05-11T06:12:18.017Z,14.90
2023-05-11T06:13:18.013Z,14.40
2023-05-11T06:14:18.015Z,15.10
2023-05-11T06:15:18.015Z,14.20
2023-05-11T06:16:18.100Z,13.60
2023-05-11T06:17:18.017Z,14.10
2023-05-11T06:18:18.073Z,14.50
2023-05-11T06:19:18.022Z,13.50
2023-05-11T06:20:18.225Z,13.10
2023-05-11T06:21:18.012Z,13.80
2023-05-11T06:22:18.012Z,14.80
2023-05-11T06:23:18.012Z,14.30
2023-05-11T06:24:18.013Z,14.10
2023-05-11T06:25:18.009Z,13.00
2023-05-11T06:26:18.008Z,12.80
2023-05-11T06:27:18.324Z,13.40
2023-05-11T06:28:18.013Z,12.90
2023-05-11T06:29:18.012Z,13.00
2023-05-11T06:30:18.178Z,12.90
2023-05-11T06:31:18.033Z,12.80
2023-05-11T06:32:18.013Z,12.90
2023-05-11T06:33:18.017Z,12.80
2023-05-11T06:34:18.015Z,12.20
2023-05-11T06:35:18.019Z,12.30
2023-05-11T06:36:18.029Z,12.90
2023-05-11T06:37:18.029Z,12.10
2023-05-11T06:38:18.026Z,11.70
2023-05-11T06:39:18.020Z,12.10
2023-05-11T06:40:18.154Z,11.30
2023-05-11T06:41:18.027Z,11.50
2023-05-11T06:42:18.029Z,11.00
2023-05-11T06:43:18.029Z,9.60
2023-05-11T06:44:18.030Z,9.80
2023-05-11T06:45:18.055Z,9.00
2023-05-11T06:46:18.185Z,8.60
2023-05-11T06:47:18.053Z,10.20
2023-05-11T06:48:18.031Z,8.80
2023-05-11T06:49:18.042Z,7.20
2023-05-11T06:50:20.919Z,7.10
2023-05-11T06:51:18.040Z,7.20
2023-05-11T06:52:18.040Z,7.20
2023-05-11T06:53:18.141Z,7.50
2023-05-11T06:54:18.049Z,6.20
2023-05-11T06:55:18.045Z,7.80
2023-05-11T06:56:18.055Z,6.00
2023-05-11T06:57:18.051Z,5.70
2023-05-11T06:58:18.060Z,5.30
2023-05-11T06:59:18.062Z,7.20
2023-05-11T07:00:18.216Z,5.80
2023-05-11T07:01:18.115Z,7.00
2023-05-11T07:02:18.061Z,5.80
2023-05-11T07:03:18.097Z,6.60
2023-05-11T07:04:18.097Z,8.40
2023-05-11T07:05:18.075Z,5.40
2023-05-11T07:06:18.072Z,5.30
2023-05-11T07:07:18.072Z,6.00
2023-05-11T07:08:18.078Z,7.70
2023-05-11T07:09:18.084Z,6.80
2023-05-11T07:10:18.210Z,5.30
2023-05-11T07:11:18.102Z,5.40
2023-05-11T07:12:18.084Z,5.20
2023-05-11T07:13:18.089Z,7.70
2023-05-11T07:14:18.112Z,6.00
2023-05-11T07:15:18.091Z,4.20
2023-05-11T07:16:18.158Z,4.50
2023-05-11T07:17:18.098Z,4.40
2023-05-11T07:18:18.150Z,7.40
2023-05-11T07:19:18.113Z,9.80
2023-05-11T07:20:18.502Z,4.10
2023-05-11T07:21:18.111Z,4.90
2023-05-11T07:22:18.113Z,6.00
2023-05-11T07:23:18.128Z,5.50
2023-05-11T07:24:18.121Z,4.60
2023-05-11T07:25:18.120Z,5.10
2023-05-11T07:26:18.124Z,4.20
2023-05-11T07:27:18.127Z,4.50
2023-05-11T07:28:18.139Z,5.70
2023-05-11T07:29:18.136Z,4.80
2023-05-11T07:30:18.956Z,5.40
2023-05-11T07:31:18.146Z,6.30
2023-05-11T07:32:18.149Z,6.70
2023-05-11T07:33:18.155Z,5.10
2023-05-11T07:34:18.156Z,6.00
2023-05-11T07:35:18.155Z,5.10
2023-05-11T07:36:18.157Z,6.20
2023-05-11T07:37:18.167Z,6.10
2023-05-11T07:38:18.163Z,4.80
2023-05-11T07:39:18.166Z,7.00
2023-05-11T07:40:18.343Z,6.50
2023-05-11T07:41:18.178Z,4.70
2023-05-11T07:42:18.185Z,6.90
2023-05-11T07:43:18.181Z,7.30
2023-05-11T07:44:18.196Z,6.10
2023-05-11T07:45:18.192Z,6.50
2023-05-11T07:46:18.246Z,7.50
2023-05-11T07:47:18.197Z,6.70
2023-05-11T07:48:18.201Z,9.00
2023-05-11T07:49:22.994Z,6.30
2023-05-11T07:50:18.546Z,6.90
2023-05-11T07:51:18.210Z,8.80
2023-05-11T07:52:18.218Z,6.90
2023-05-11T07:53:18.279Z,4.80
2023-05-11T07:54:19.583Z,5.40
2023-05-11T07:55:18.339Z,4.60
2023-05-11T07:56:18.231Z,4.70
2023-05-11T07:57:18.241Z,4.40
2023-05-11T07:58:18.240Z,5.60
2023-05-11T07:59:18.246Z,4.70
2023-05-11T08:00:18.407Z,4.80
2023-05-11T08:01:18.253Z,5.70
2023-05-11T08:02:18.271Z,4.80
2023-05-11T08:03:18.371Z,6.10
2023-05-11T08:04:18.274Z,5.50
2023-05-11T08:06:18.335Z,5.60
2023-05-11T08:07:18.280Z,5.90
2023-05-11T08:08:18.288Z,5.30
2023-05-11T08:09:18.291Z,4.90
2023-05-11T08:10:18.294Z,4.90
2023-05-11T08:11:18.305Z,5.10
2023-05-11T08:12:18.328Z,5.60
2023-05-11T08:13:18.309Z,6.50
2023-05-11T08:14:18.317Z,4.50
2023-05-11T08:15:18.450Z,6.30
2023-05-11T08:16:18.337Z,4.70
2023-05-11T08:17:18.333Z,7.00
2023-05-11T08:18:18.382Z,7.20
2023-05-11T08:19:18.338Z,6.90
2023-05-11T08:20:18.368Z,4.00
2023-05-11T08:21:18.341Z,4.90
2023-05-11T08:22:18.346Z,4.60
2023-05-11T08:23:18.378Z,4.90
2023-05-11T08:24:18.348Z,4.70
2023-05-11T08:25:18.527Z,6.70
2023-05-11T08:26:18.353Z,4.50
2023-05-11T08:27:18.354Z,4.30
2023-05-11T08:28:18.352Z,4.90
2023-05-11T08:29:18.356Z,4.10
2023-05-11T08:30:18.357Z,4.90
2023-05-11T08:31:18.388Z,6.40
2023-05-11T08:32:18.428Z,4.20
2023-05-11T08:34:20.105Z,5.20
2023-05-11T08:35:18.558Z,5.60
2023-05-11T08:36:18.362Z,4.20
2023-05-11T08:37:18.364Z,4.00
2023-05-11T08:38:18.363Z,4.80
2023-05-11T08:39:28.525Z,4.10
2023-05-11T08:40:18.367Z,6.40
2023-05-11T08:41:18.369Z,2.80
2023-05-11T08:42:18.369Z,3.90
2023-05-11T08:43:18.375Z,3.70
2023-05-11T08:44:18.366Z,5.20
2023-05-11T08:45:18.526Z,4.40
2023-05-11T08:46:18.376Z,4.10
2023-05-11T08:47:23.318Z,4.20
2023-05-11T08:48:18.366Z,4.40
2023-05-11T08:49:18.370Z,3.90
2023-05-11T08:50:18.390Z,4.40
2023-05-11T08:51:18.382Z,5.30
2023-05-11T08:52:18.395Z,4.40
2023-05-11T08:53:18.371Z,3.70
2023-05-11T08:54:18.368Z,3.90
2023-05-11T08:55:18.528Z,4.80
2023-05-11T08:56:18.370Z,3.00
2023-05-11T08:57:18.390Z,5.50
2023-05-11T08:58:18.373Z,4.70
2023-05-11T08:59:18.368Z,5.50
2023-05-11T09:00:18.384Z,4.60
2023-05-11T09:01:18.419Z,4.60
2023-05-11T09:02:18.370Z,3.40
2023-05-11T09:03:18.382Z,2.60
2023-05-11T09:04:18.371Z,3.60
2023-05-11T09:05:18.544Z,4.00
2023-05-11T09:06:18.374Z,4.00
2023-05-11T09:07:18.494Z,3.40
2023-05-11T09:08:18.975Z,5.00
2023-05-11T09:09:18.381Z,2.60
2023-05-11T09:10:18.391Z,3.80
2023-05-11T09:11:18.391Z,3.20
2023-05-11T09:12:18.385Z,4.70
2023-05-11T09:13:18.380Z,4.30
2023-05-11T09:14:18.377Z,5.00
2023-05-11T09:15:18.664Z,4.40
2023-05-11T09:16:35.749Z,6.20
2023-05-11T09:17:18.381Z,3.10
2023-05-11T09:18:18.420Z,4.10
2023-05-11T09:19:18.384Z,3.30
2023-05-11T09:20:18.513Z,2.80
2023-05-11T09:21:18.491Z,4.90
2023-05-11T09:22:18.384Z,3.50
2023-05-11T09:23:18.382Z,2.60
2023-05-11T09:24:18.380Z,3.60
2023-05-11T09:25:18.641Z,5.80
2023-05-11T09:26:18.379Z,2.60
2023-05-11T09:27:21.270Z,4.70
2023-05-11T09:29:18.398Z,5.30
2023-05-11T09:31:18.439Z,5.00
2023-05-11T09:32:18.383Z,4.10
2023-05-11T09:33:18.380Z,2.10
2023-05-11T09:34:18.381Z,2.00
2023-05-11T09:35:18.545Z,3.40
2023-05-11T09:36:18.378Z,3.20
2023-05-11T09:37:18.404Z,3.10
2023-05-11T09:38:18.373Z,2.90
2023-05-11T09:41:18.379Z,4.20
2023-05-11T09:42:18.386Z,2.80
2023-05-11T09:43:18.404Z,3.10
2023-05-11T09:44:18.379Z,5.60
2023-05-11T09:45:18.541Z,4.20
2023-05-11T09:46:18.371Z,3.10
2023-05-11T09:47:18.372Z,3.70
2023-05-11T09:48:18.379Z,3.00
2023-05-11T09:49:18.371Z,3.00
2023-05-11T09:50:18.876Z,2.30
2023-05-11T09:51:18.369Z,3.10
2023-05-11T09:52:18.403Z,3.10
2023-05-11T09:53:18.376Z,3.30
2023-05-11T09:54:18.366Z,3.40
2023-05-11T09:55:18.567Z,3.60
2023-05-11T09:56:18.367Z,3.50
2023-05-11T09:57:18.364Z,5.10
2023-05-11T09:58:18.360Z,2.40
2023-05-11T09:59:18.366Z,4.70
2023-05-11T10:00:18.363Z,4.20
2023-05-11T10:01:18.446Z,3.50
2023-05-11T10:02:18.398Z,3.20
2023-05-11T10:03:18.495Z,3.10
2023-05-11T10:04:23.719Z,2.80
2023-05-11T10:05:18.485Z,3.30
2023-05-11T10:06:20.325Z,3.50
2023-05-11T10:07:18.357Z,2.80
2023-05-11T10:08:18.354Z,4.20
2023-05-11T10:09:18.361Z,3.60
2023-05-11T10:10:18.353Z,4.30
2023-05-11T10:11:18.357Z,5.40
2023-05-11T10:12:18.361Z,4.00
2023-05-11T10:13:18.352Z,4.00
2023-05-11T10:14:18.405Z,3.40
2023-05-11T10:15:18.560Z,15.40
2023-05-11T10:16:18.389Z,6.10
2023-05-11T10:17:18.354Z,4.60
2023-05-11T10:18:20.120Z,5.40
2023-05-11T10:19:18.351Z,4.10
2023-05-11T10:20:18.511Z,4.40
2023-05-11T10:21:18.351Z,4.20
2023-05-11T10:22:18.366Z,2.90
2023-05-11T10:23:18.347Z,3.60
2023-05-11T10:24:20.508Z,3.60
2023-05-11T10:25:18.347Z,3.30
2023-05-11T10:26:18.345Z,2.60
2023-05-11T10:27:18.350Z,3.80
2023-05-11T10:28:18.350Z,3.10
2023-05-11T10:29:18.352Z,3.50
2023-05-11T10:30:18.606Z,2.40
2023-05-11T10:31:18.452Z,3.20
2023-05-11T10:32:18.343Z,3.30
2023-05-11T10:33:18.349Z,4.50
2023-05-11T10:34:18.343Z,4.30
2023-05-11T10:35:18.343Z,2.50
2023-05-11T10:36:19.431Z,4.60
2023-05-11T10:37:18.342Z,2.20
2023-05-11T10:38:18.345Z,3.00
2023-05-11T10:39:18.341Z,4.30
2023-05-11T10:40:18.495Z,3.80
2023-05-11T10:41:18.341Z,2.30
2023-05-11T10:42:18.344Z,3.30
2023-05-11T10:43:18.340Z,3.90
2023-05-11T10:44:18.341Z,4.10
2023-05-11T10:45:18.341Z,2.90
2023-05-11T10:46:18.400Z,2.90
2023-05-11T10:47:18.362Z,2.60
2023-05-11T10:48:18.341Z,1.60
2023-05-11T10:49:18.342Z,4.10
2023-05-11T10:50:18.512Z,3.10
2023-05-11T10:51:18.341Z,5.20
2023-05-11T10:52:18.339Z,3.10
2023-05-11T10:53:18.354Z,2.40
2023-05-11T10:54:18.366Z,3.10
2023-05-11T10:55:18.552Z,2.20
2023-05-11T10:56:18.339Z,3.30
2023-05-11T10:57:18.339Z,3.70
2023-05-11T10:58:18.340Z,3.90
2023-05-11T10:59:18.343Z,3.60
2023-05-11T11:00:18.560Z,2.80
2023-05-11T11:01:18.394Z,2.30
2023-05-11T11:02:18.345Z,2.90
2023-05-11T11:03:18.364Z,5.40
2023-05-11T11:04:18.364Z,2.90
2023-05-11T11:05:18.432Z,3.60
2023-05-11T11:06:18.347Z,4.40
2023-05-11T11:07:18.440Z,4.70
2023-05-11T11:08:18.346Z,3.20
2023-05-11T11:09:18.348Z,4.20
2023-05-11T11:10:18.509Z,4.40
2023-05-11T11:11:18.348Z,3.80
2023-05-11T11:12:18.349Z,4.20
2023-05-11T11:13:18.356Z,3.10
2023-05-11T11:14:18.349Z,2.30
2023-05-11T11:15:18.550Z,3.50
2023-05-11T11:16:18.351Z,2.40
2023-05-11T11:17:18.414Z,4.80
2023-05-11T11:18:18.400Z,3.80
2023-05-11T11:19:18.357Z,2.30
2023-05-11T11:20:18.353Z,4.40
2023-05-11T11:21:18.358Z,3.70
2023-05-11T11:22:18.354Z,3.80
2023-05-11T11:23:18.355Z,1.90
2023-05-11T11:24:18.358Z,3.00
2023-05-11T11:25:18.574Z,2.60
2023-05-11T11:26:18.355Z,4.10
2023-05-11T11:27:18.359Z,4.90
2023-05-11T11:28:18.360Z,2.00
2023-05-11T11:29:18.545Z,3.10
2023-05-11T11:30:18.359Z,2.10
2023-05-11T11:31:18.426Z,3.70
2023-05-11T11:32:18.360Z,3.70
2023-05-11T11:33:18.407Z,2.30
2023-05-11T11:34:18.544Z,3.30
2023-05-11T11:35:18.588Z,3.10
2023-05-11T11:36:18.362Z,5.20
2023-05-11T11:37:18.364Z,5.20
2023-05-11T11:38:18.361Z,3.30
2023-05-11T11:39:18.547Z,4.80
2023-05-11T11:40:18.451Z,2.70
2023-05-11T11:41:18.366Z,5.30
2023-05-11T11:42:18.366Z,2.70
2023-05-11T11:43:18.367Z,4.00
2023-05-11T11:44:18.370Z,3.70
2023-05-11T11:45:18.541Z,3.00
2023-05-11T11:46:18.391Z,5.10
2023-05-11T11:47:18.366Z,3.10
2023-05-11T11:48:18.370Z,3.60
2023-05-11T11:49:18.370Z,2.90
2023-05-11T11:50:18.372Z,3.70
2023-05-11T11:51:18.385Z,7.00
2023-05-11T11:52:18.371Z,4.80
2023-05-11T11:53:18.390Z,1.90
2023-05-11T11:54:18.374Z,5.40
2023-05-11T11:55:18.594Z,3.60
2023-05-11T11:56:18.373Z,5.10
2023-05-11T11:57:18.372Z,3.10
2023-05-11T11:58:18.405Z,4.80
2023-05-11T11:59:18.371Z,3.70
2023-05-11T12:00:18.372Z,4.30
2023-05-11T12:01:18.382Z,4.20
2023-05-11T12:02:18.374Z,4.30
2023-05-11T12:03:18.424Z,6.00
2023-05-11T12:04:18.574Z,5.60
2023-05-11T12:05:18.978Z,3.60
2023-05-11T12:06:18.373Z,4.30
2023-05-11T12:07:18.396Z,6.10
2023-05-11T12:08:18.385Z,4.90
2023-05-11T12:09:18.438Z,4.40
2023-05-11T12:10:18.407Z,5.80
2023-05-11T12:11:18.370Z,3.90
2023-05-11T12:12:18.393Z,4.30
2023-05-11T12:13:18.384Z,4.40
2023-05-11T12:14:18.370Z,4.00
2023-05-11T12:15:18.533Z,2.90
2023-05-11T12:16:18.387Z,3.40
2023-05-11T12:17:18.369Z,2.90
2023-05-11T12:18:18.397Z,5.00
2023-05-11T12:19:18.453Z,3.30
2023-05-11T12:20:18.394Z,3.90
2023-05-11T12:21:18.372Z,3.50
2023-05-11T12:22:18.370Z,3.70
2023-05-11T12:23:18.368Z,3.70
2023-05-11T12:24:18.368Z,3.50
2023-05-11T12:25:18.769Z,3.30
2023-05-11T12:26:18.366Z,4.00
2023-05-11T12:27:18.373Z,4.50
2023-05-11T12:28:18.366Z,4.60
2023-05-11T12:29:18.374Z,4.70
2023-05-11T12:30:18.366Z,2.50
2023-05-11T12:31:18.415Z,2.70
2023-05-11T12:32:18.423Z,5.00
2023-05-11T12:33:18.405Z,4.90
2023-05-11T12:34:18.366Z,4.60
2023-05-11T12:35:18.559Z,2.90
2023-05-11T12:36:18.364Z,3.50
2023-05-11T12:37:18.385Z,3.80
2023-05-11T12:38:18.363Z,3.60
2023-05-11T12:39:18.362Z,3.70
2023-05-11T12:40:18.368Z,4.20
2023-05-11T12:41:18.368Z,4.00
2023-05-11T12:42:18.362Z,1.80
2023-05-11T12:43:18.358Z,2.50
2023-05-11T12:44:18.379Z,4.40
2023-05-11T12:45:18.470Z,2.70
2023-05-11T12:46:18.398Z,4.90
2023-05-11T12:47:18.362Z,2.60
2023-05-11T12:48:18.378Z,3.20
2023-05-11T12:49:24.653Z,4.00
2023-05-11T12:50:18.362Z,4.40
2023-05-11T12:51:18.359Z,2.80
2023-05-11T12:52:18.353Z,4.00
2023-05-11T12:53:18.359Z,3.80
2023-05-11T12:54:18.353Z,2.70
2023-05-11T12:55:18.534Z,2.70
2023-05-11T12:56:18.346Z,2.90
2023-05-11T12:57:18.366Z,4.10
2023-05-11T12:58:18.358Z,3.90
2023-05-11T12:59:18.354Z,5.40
2023-05-11T13:00:20.500Z,4.30
2023-05-11T13:01:18.389Z,3.70
2023-05-11T13:02:18.394Z,6.10
2023-05-11T13:03:18.459Z,3.20
2023-05-11T13:04:18.350Z,4.50
2023-05-11T13:05:18.456Z,3.90
2023-05-11T13:06:18.348Z,3.20
2023-05-11T13:07:18.344Z,4.10
2023-05-11T13:08:18.514Z,3.90
2023-05-11T13:09:18.344Z,3.70
2023-05-11T13:10:18.341Z,3.40
2023-05-11T13:11:18.355Z,6.10